createdAt,value
2023-01-23T00:00:02.253Z,9.712396
2023-01-23T00:01:02.226Z,9.712121
2023-01-23T00:02:02.224Z,9.711544
2023-01-23T00:03:02.213Z,9.711730
2023-01-23T00:04:03.161Z,9.712009
2023-01-23T00:05:02.251Z,9.712452
2023-01-23T00:09:09.562Z,9.712531
2023-01-23T00:10:09.553Z,9.712185
2023-01-23T00:11:10.347Z,9.712185
2023-01-23T00:12:09.534Z,9.712185
2023-01-23T00:13:09.548Z,9.712185
2023-01-23T00:14:10.331Z,9.712185
2023-01-23T00:15:09.523Z,9.712185
2023-01-23T00:16:09.528Z,9.712185
2023-01-23T00:17:10.497Z,9.712185
2023-01-23T00:18:09.491Z,9.712185
2023-01-23T00:19:10.432Z,9.710748
2023-01-23T00:20:09.477Z,9.711639
2023-01-23T00:21:10.329Z,9.711703
2023-01-23T00:22:09.451Z,9.711994
2023-01-23T00:23:09.445Z,9.711794
2023-01-23T00:24:09.435Z,9.711457
2023-01-23T00:29:18.724Z,9.711576
2023-01-23T00:30:18.451Z,9.711663
2023-01-23T00:31:18.149Z,9.711681
2023-01-23T00:32:18.049Z,9.711676
2023-01-23T00:33:18.038Z,9.711679
2023-01-23T00:34:18.141Z,9.711595
2023-01-23T00:35:18.017Z,9.711629
2023-01-23T00:36:18.009Z,9.711634
2023-01-23T00:37:17.999Z,9.711676
2023-01-23T00:38:18.054Z,9.711658
2023-01-23T00:39:18.010Z,9.711617
2023-01-23T00:40:18.312Z,9.711599
2023-01-23T00:41:17.979Z,9.711627
2023-01-23T00:42:17.988Z,9.711540
2023-01-23T00:43:17.953Z,9.711585
2023-01-23T00:44:17.966Z,9.711583
2023-01-23T00:45:17.943Z,9.711615
2023-01-23T00:46:17.968Z,9.711570
2023-01-23T00:47:17.936Z,9.711523
2023-01-23T00:48:17.913Z,9.711509
2023-01-23T00:49:17.945Z,9.711598
2023-01-23T00:50:18.251Z,9.711497
2023-01-23T00:51:18.789Z,9.711675
2023-01-23T00:52:19.754Z,9.711605
2023-01-23T00:53:18.728Z,9.711534
2023-01-23T00:54:17.875Z,9.711641
2023-01-23T00:55:17.866Z,9.711680
2023-01-23T00:56:18.671Z,9.711527
2023-01-23T00:57:17.942Z,9.711407
2023-01-23T00:58:18.244Z,9.711643
2023-01-23T00:59:18.646Z,9.711515
2023-01-23T01:00:19.114Z,9.711519
2023-01-23T01:01:17.856Z,9.711548
2023-01-23T01:02:17.809Z,9.711500
2023-01-23T01:03:17.827Z,9.711623
2023-01-23T01:04:19.670Z,9.711692
2023-01-23T01:05:17.784Z,9.711652
2023-01-23T01:06:18.847Z,9.711769
2023-01-23T01:07:17.765Z,9.711658
2023-01-23T01:08:17.753Z,9.711571
2023-01-23T01:09:17.745Z,9.711489
2023-01-23T01:10:17.941Z,9.711536
2023-01-23T01:11:17.731Z,9.711576
2023-01-23T01:12:17.718Z,9.711624
2023-01-23T01:13:17.724Z,9.711683
2023-01-23T01:14:17.714Z,9.711669
2023-01-23T01:15:17.695Z,9.711639
2023-01-23T01:16:18.732Z,9.711598
2023-01-23T01:17:17.684Z,9.711646
2023-01-23T01:18:19.164Z,9.711609
2023-01-23T01:19:17.678Z,9.711664
2023-01-23T01:20:18.565Z,9.711710
2023-01-23T01:21:17.649Z,9.711635
2023-01-23T01:22:17.743Z,9.711664
2023-01-23T01:23:18.226Z,9.711649
2023-01-23T01:24:18.150Z,9.711661
2023-01-23T01:25:17.659Z,9.711757
2023-01-23T01:26:18.255Z,9.711731
2023-01-23T01:27:21.775Z,9.711670
2023-01-23T01:28:18.154Z,9.711547
2023-01-23T01:29:28.280Z,9.711600
2023-01-23T01:30:17.829Z,9.711566
2023-01-23T01:31:19.243Z,9.711505
2023-01-23T01:32:17.630Z,9.711575
2023-01-23T01:33:19.875Z,9.711619
2023-01-23T01:34:19.233Z,9.711588
2023-01-23T01:35:19.175Z,9.711541
2023-01-23T01:36:17.529Z,9.711520
2023-01-23T01:37:19.665Z,9.711705
2023-01-23T01:38:18.257Z,9.711828
2023-01-23T01:39:17.505Z,9.711731
2023-01-23T01:40:17.738Z,9.711422
2023-01-23T01:41:19.241Z,9.711825
2023-01-23T01:42:17.493Z,9.711780
2023-01-23T01:43:17.483Z,9.711712
2023-01-23T01:44:17.479Z,9.711533
2023-01-23T01:45:17.459Z,9.711707
2023-01-23T01:46:17.478Z,9.711736
2023-01-23T01:47:17.445Z,9.711953
2023-01-23T01:48:17.445Z,9.711941
2023-01-23T01:49:19.175Z,9.711934
2023-01-23T01:56:25.333Z,9.711503
2023-01-23T01:57:25.340Z,9.711463
2023-01-23T01:58:25.332Z,9.711449
2023-01-23T01:59:25.319Z,9.711400
2023-01-23T02:00:25.348Z,9.711597
2023-01-23T02:01:25.294Z,9.711431
2023-01-23T02:02:25.280Z,9.710908
2023-01-23T02:03:25.275Z,9.710181
2023-01-23T02:04:25.277Z,9.710145
2023-01-23T02:05:26.213Z,9.710999
2023-01-23T02:06:25.261Z,9.711028
2023-01-23T02:07:25.251Z,9.711591
2023-01-23T02:08:25.253Z,9.711361
2023-01-23T02:09:25.339Z,9.711934
2023-01-23T02:10:25.252Z,9.711625
2023-01-23T02:11:26.149Z,9.711601
2023-01-23T02:12:25.712Z,9.711551
2023-01-23T02:13:25.213Z,9.711516
2023-01-23T02:14:25.193Z,9.711639
2023-01-23T02:15:25.197Z,9.711626
2023-01-23T02:16:25.194Z,9.711556
2023-01-23T02:17:25.175Z,9.711566
2023-01-23T02:18:25.168Z,9.711553
2023-01-23T02:19:25.164Z,9.711567
2023-01-23T02:20:25.143Z,9.711699
2023-01-23T02:21:25.614Z,9.711844
2023-01-23T02:22:26.147Z,9.711721
2023-01-23T02:23:25.127Z,9.711725
2023-01-23T02:24:25.116Z,9.711852
2023-01-23T02:25:25.208Z,9.712119
2023-01-23T02:26:26.774Z,9.711884
2023-01-23T02:27:25.093Z,9.711690
2023-01-23T02:28:25.091Z,9.711704
2023-01-23T02:29:25.132Z,9.711608
2023-01-23T02:30:25.061Z,9.711498
2023-01-23T02:31:25.130Z,9.711542
2023-01-23T02:32:25.053Z,9.711774
2023-01-23T02:33:25.050Z,9.712043
2023-01-23T02:34:25.716Z,9.711858
2023-01-23T02:35:25.030Z,9.711908
2023-01-23T02:36:25.030Z,9.711752
2023-01-23T02:37:25.011Z,9.711766
2023-01-23T02:38:25.006Z,9.711936
2023-01-23T02:39:25.026Z,9.711872
2023-01-23T02:40:24.990Z,9.711894
2023-01-23T02:41:26.829Z,9.712047
2023-01-23T02:42:24.998Z,9.711875
2023-01-23T02:43:24.966Z,9.711876
2023-01-23T02:44:24.968Z,9.711832
2023-01-23T02:45:24.963Z,9.711922
2023-01-23T02:46:24.942Z,9.711841
2023-01-23T02:47:24.957Z,9.711840
2023-01-23T02:48:24.925Z,9.711782
2023-01-23T02:49:24.915Z,9.711744
2023-01-23T02:50:24.908Z,9.711742
2023-01-23T02:51:25.963Z,9.711615
2023-01-23T02:52:24.895Z,9.711684
2023-01-23T02:53:24.899Z,9.711668
2023-01-23T02:54:24.879Z,9.711828
2023-01-23T02:55:25.717Z,9.711827
2023-01-23T02:56:24.873Z,9.711718
2023-01-23T02:57:24.959Z,9.711496
2023-01-23T02:58:25.643Z,9.711579
2023-01-23T02:59:24.846Z,9.711644
2023-01-23T03:00:24.835Z,9.711764
2023-01-23T03:01:24.824Z,9.711682
2023-01-23T03:02:24.905Z,9.711550
2023-01-23T03:03:24.824Z,9.711626
2023-01-23T03:04:24.804Z,9.711687
2023-01-23T03:05:24.815Z,9.711697
2023-01-23T03:06:24.791Z,9.711746
2023-01-23T03:07:24.792Z,9.711699
2023-01-23T03:08:25.719Z,9.711677
2023-01-23T03:09:24.765Z,9.711720
2023-01-23T03:10:24.824Z,9.711769
2023-01-23T03:15:32.714Z,9.712155
2023-01-23T03:16:32.775Z,9.712193
2023-01-23T03:17:32.668Z,9.712225
2023-01-23T03:18:35.965Z,9.712099
2023-01-23T03:19:33.650Z,9.711930
2023-01-23T03:20:32.685Z,9.711893
2023-01-23T03:21:32.638Z,9.711775
2023-01-23T03:22:32.630Z,9.711880
2023-01-23T03:23:32.633Z,9.711720
2023-01-23T03:24:32.611Z,9.711684
2023-01-23T03:25:32.609Z,9.711753
2023-01-23T03:26:32.618Z,9.711792
2023-01-23T03:27:32.588Z,9.711535
2023-01-23T03:28:32.686Z,9.711672
2023-01-23T03:29:32.581Z,9.711614
2023-01-23T03:30:32.589Z,9.711661
2023-01-23T03:31:32.645Z,9.711672
2023-01-23T03:32:32.568Z,9.711714
2023-01-23T03:33:32.552Z,9.711730
2023-01-23T03:34:32.547Z,9.711714
2023-01-23T03:35:32.544Z,9.711448
2023-01-23T03:36:32.525Z,9.711429
2023-01-23T03:37:32.514Z,9.711636
2023-01-23T03:38:32.508Z,9.711741
2023-01-23T03:39:33.506Z,9.711866
2023-01-23T03:40:32.492Z,9.711584
2023-01-23T03:41:32.485Z,9.711627
2023-01-23T03:42:32.473Z,9.711859
2023-01-23T03:43:33.464Z,9.711581
2023-01-23T03:44:32.553Z,9.711559
2023-01-23T03:45:32.485Z,9.711688
2023-01-23T03:46:32.449Z,9.711631
2023-01-23T03:47:32.435Z,9.711559
2023-01-23T03:48:32.437Z,9.711779
2023-01-23T03:49:32.980Z,9.711832
2023-01-23T03:50:32.429Z,9.711634
2023-01-23T03:51:32.402Z,9.711578
2023-01-23T03:52:32.402Z,9.711653
2023-01-23T03:53:33.377Z,9.711701
2023-01-23T03:54:32.375Z,9.711786
2023-01-23T03:55:33.063Z,9.711673
2023-01-23T03:56:32.984Z,9.711767
2023-01-23T03:57:32.970Z,9.711689
2023-01-23T03:58:32.355Z,9.711803
2023-01-23T03:59:32.335Z,9.711793
2023-01-23T04:00:32.440Z,9.711698
2023-01-23T04:01:32.327Z,9.711660
2023-01-23T04:02:32.353Z,9.711818
2023-01-23T04:03:32.319Z,9.712024
2023-01-23T04:04:32.303Z,9.711973
2023-01-23T04:05:32.295Z,9.711914
2023-01-23T04:06:32.292Z,9.711976
2023-01-23T04:07:32.277Z,9.711945
2023-01-23T04:08:32.275Z,9.711843
2023-01-23T04:09:32.272Z,9.711771
2023-01-23T04:10:32.268Z,9.711652
2023-01-23T04:11:32.244Z,9.711611
2023-01-23T04:12:32.957Z,9.711563
2023-01-23T04:13:32.960Z,9.711632
2023-01-23T04:14:32.225Z,9.711625
2023-01-23T04:15:32.203Z,9.711700
2023-01-23T04:16:34.104Z,9.711478
2023-01-23T04:17:32.201Z,9.711498
2023-01-23T04:18:32.197Z,9.711661
2023-01-23T04:19:32.185Z,9.711478
2023-01-23T04:20:32.185Z,9.711454
2023-01-23T04:21:32.170Z,9.711653
2023-01-23T04:22:32.160Z,9.711705
2023-01-23T04:23:32.165Z,9.711671
2023-01-23T04:24:32.148Z,9.711879
2023-01-23T04:25:32.136Z,9.711967
2023-01-23T04:26:32.148Z,9.711971
2023-01-23T04:27:32.123Z,9.711951
2023-01-23T04:28:32.973Z,9.711915
2023-01-23T04:29:32.117Z,9.711806
2023-01-23T04:30:32.260Z,9.711782
2023-01-23T04:31:32.196Z,9.711680
2023-01-23T04:32:32.173Z,9.711722
2023-01-23T04:33:33.114Z,9.711776
2023-01-23T04:34:32.071Z,9.711815
2023-01-23T04:35:32.058Z,9.711815
2023-01-23T04:36:32.052Z,9.711839
2023-01-23T04:37:32.061Z,9.711819
2023-01-23T04:38:32.035Z,9.711823
2023-01-23T04:39:32.024Z,9.711835
2023-01-23T04:40:32.038Z,9.711921
2023-01-23T04:41:32.966Z,9.711851
2023-01-23T04:42:32.033Z,9.711911
2023-01-23T04:43:32.000Z,9.711883
2023-01-23T04:44:32.008Z,9.711823
2023-01-23T04:45:31.983Z,9.711755
2023-01-23T04:46:31.969Z,9.711753
2023-01-23T04:47:31.974Z,9.711738
2023-01-23T04:48:32.058Z,9.711697
2023-01-23T04:49:31.957Z,9.711684
2023-01-23T04:50:31.955Z,9.711639
2023-01-23T04:51:31.939Z,9.711666
2023-01-23T04:52:31.925Z,9.711705
2023-01-23T04:53:31.939Z,9.711702
2023-01-23T04:54:31.924Z,9.711686
2023-01-23T04:55:32.918Z,9.711685
2023-01-23T04:56:31.918Z,9.711697
2023-01-23T04:57:31.926Z,9.711640
2023-01-23T04:58:31.896Z,9.711667
2023-01-23T04:59:31.972Z,9.711676
2023-01-23T05:00:31.879Z,9.711660
2023-01-23T05:01:31.869Z,9.711664
2023-01-23T05:02:31.872Z,9.711651
2023-01-23T05:03:31.877Z,9.711612
2023-01-23T05:04:31.978Z,9.711612
2023-01-23T05:05:31.836Z,9.711667
2023-01-23T05:06:31.823Z,9.711659
2023-01-23T05:07:31.816Z,9.711596
2023-01-23T05:08:31.809Z,9.711555
2023-01-23T05:09:31.823Z,9.711568
2023-01-23T05:10:31.796Z,9.711613
2023-01-23T05:11:31.797Z,9.711659
2023-01-23T05:12:31.774Z,9.711578
2023-01-23T05:13:31.799Z,9.711535
2023-01-23T05:14:32.494Z,9.711540
2023-01-23T05:15:31.802Z,9.711561
2023-01-23T05:16:31.746Z,9.711615
2023-01-23T05:17:31.761Z,9.711689
2023-01-23T05:18:31.731Z,9.711686
2023-01-23T05:19:31.730Z,9.711596
2023-01-23T05:20:32.661Z,9.711542
2023-01-23T05:21:31.711Z,9.711715
2023-01-23T05:22:31.704Z,9.711530
2023-01-23T05:23:33.571Z,9.711551
2023-01-23T05:24:31.691Z,9.711746
2023-01-23T05:25:31.670Z,9.711715
2023-01-23T05:26:31.669Z,9.711753
2023-01-23T05:27:33.543Z,9.712350
2023-01-23T05:28:31.666Z,9.712871
2023-01-23T05:29:31.636Z,9.712201
2023-01-23T05:30:32.574Z,9.711824
2023-01-23T05:31:31.729Z,9.711490
2023-01-23T05:32:31.627Z,9.711460
2023-01-23T05:33:31.628Z,9.711479
2023-01-23T05:34:31.605Z,9.711761
2023-01-23T05:35:31.611Z,9.711513
2023-01-23T05:36:31.691Z,9.711225
2023-01-23T05:37:31.618Z,9.710997
2023-01-23T05:38:31.599Z,9.711570
2023-01-23T05:39:31.594Z,9.711657
2023-01-23T05:40:31.569Z,9.711679
2023-01-23T05:41:32.540Z,9.711649
2023-01-23T05:42:32.487Z,9.711604
2023-01-23T05:43:31.556Z,9.711677
2023-01-23T05:44:31.541Z,9.711671
2023-01-23T05:45:32.469Z,9.711687
2023-01-23T05:46:31.597Z,9.711717
2023-01-23T05:47:31.503Z,9.711696
2023-01-23T05:48:31.508Z,9.711762
2023-01-23T05:49:31.500Z,9.711684
2023-01-23T05:50:34.502Z,9.711715
2023-01-23T05:51:31.480Z,9.711684
2023-01-23T05:52:31.588Z,9.711724
2023-01-23T05:53:31.457Z,9.711711
2023-01-23T05:54:31.449Z,9.711705
2023-01-23T05:55:31.442Z,9.711739
2023-01-23T05:56:31.442Z,9.711709
2023-01-23T05:57:31.447Z,9.711741
2023-01-23T05:58:31.424Z,9.711709
2023-01-23T05:59:31.468Z,9.711765
2023-01-23T06:00:31.417Z,9.711751
2023-01-23T06:01:31.398Z,9.711788
2023-01-23T06:02:32.390Z,9.711802
2023-01-23T06:03:31.457Z,9.711774
2023-01-23T06:04:31.440Z,9.711735
2023-01-23T06:05:31.379Z,9.711743
2023-01-23T06:06:31.367Z,9.711793
2023-01-23T06:07:31.362Z,9.711750
2023-01-23T06:08:31.435Z,9.711742
2023-01-23T06:09:32.976Z,9.711769
2023-01-23T06:10:31.976Z,9.711741
2023-01-23T06:11:32.068Z,9.711739
2023-01-23T06:12:31.326Z,9.711747
2023-01-23T06:13:33.985Z,9.711761
2023-01-23T06:14:31.314Z,9.711742
2023-01-23T06:15:31.357Z,9.711751
2023-01-23T06:16:31.298Z,9.711707
2023-01-23T06:17:31.324Z,9.711726
2023-01-23T06:18:31.259Z,9.711739
2023-01-23T06:19:31.268Z,9.711699
2023-01-23T06:20:31.251Z,9.711700
2023-01-23T06:21:32.973Z,9.711630
2023-01-23T06:22:31.986Z,9.711697
2023-01-23T06:23:32.241Z,9.711624
2023-01-23T06:24:31.318Z,9.711733
2023-01-23T06:25:31.236Z,9.711640
2023-01-23T06:26:31.202Z,9.711686
2023-01-23T06:27:31.185Z,9.711661
2023-01-23T06:28:31.187Z,9.711677
2023-01-23T06:29:31.173Z,9.711658
2023-01-23T06:30:33.047Z,9.711687
2023-01-23T06:31:32.347Z,9.711736
2023-01-23T06:32:31.181Z,9.711661
2023-01-23T06:33:31.152Z,9.711638
2023-01-23T06:34:31.128Z,9.711599
2023-01-23T06:35:31.132Z,9.711636
2023-01-23T06:36:31.126Z,9.711710
2023-01-23T06:37:32.123Z,9.711651
2023-01-23T06:38:31.103Z,9.711683
2023-01-23T06:39:31.117Z,9.711712
2023-01-23T06:40:31.200Z,9.711677
2023-01-23T06:41:31.090Z,9.711655
2023-01-23T06:42:31.083Z,9.711774
2023-01-23T06:43:31.073Z,9.711754
2023-01-23T06:44:31.079Z,9.711788
2023-01-23T06:45:31.063Z,9.711725
2023-01-23T06:46:31.073Z,9.711626
2023-01-23T06:47:31.044Z,9.711674
2023-01-23T06:48:31.983Z,9.711659
2023-01-23T06:49:31.032Z,9.711788
2023-01-23T06:50:31.036Z,9.711691
2023-01-23T06:51:31.040Z,9.711650
2023-01-23T06:52:31.009Z,9.711659
2023-01-23T06:53:30.993Z,9.711664
2023-01-23T06:54:30.997Z,9.711630
2023-01-23T06:55:31.004Z,9.711577
2023-01-23T06:56:33.666Z,9.711553
2023-01-23T06:57:30.975Z,9.711554
2023-01-23T06:58:30.975Z,9.711632
2023-01-23T06:59:30.960Z,9.711629
2023-01-23T07:00:30.987Z,9.711555
2023-01-23T07:01:30.960Z,9.711596
2023-01-23T07:02:30.978Z,9.711589
2023-01-23T07:03:30.968Z,9.711681
2023-01-23T07:04:31.554Z,9.711613
2023-01-23T07:05:32.572Z,9.711669
2023-01-23T07:06:32.571Z,9.711712
2023-01-23T07:07:30.887Z,9.711756
2023-01-23T07:08:31.569Z,9.711657
2023-01-23T07:09:31.477Z,9.711706
2023-01-23T07:10:30.858Z,9.711708
2023-01-23T07:11:30.851Z,9.711696
2023-01-23T07:12:32.601Z,9.711666
2023-01-23T07:13:31.574Z,9.711617
2023-01-23T07:14:31.515Z,9.711947
2023-01-23T07:15:31.481Z,9.711852
2023-01-23T07:16:30.852Z,9.711782
2023-01-23T07:30:38.556Z,9.711788
2023-01-23T07:31:38.628Z,9.711823
2023-01-23T07:32:38.497Z,9.711708
2023-01-23T07:33:39.029Z,9.711969
2023-01-23T07:34:38.486Z,9.711772
2023-01-23T07:35:38.483Z,9.711710
2023-01-23T07:36:38.462Z,9.711650
2023-01-23T07:37:38.458Z,9.711742
2023-01-23T07:38:38.456Z,9.711679
2023-01-23T07:39:38.444Z,9.711704
2023-01-23T07:40:38.439Z,9.711711
2023-01-23T07:41:39.743Z,9.711675
2023-01-23T07:42:38.425Z,9.711690
2023-01-23T07:43:38.538Z,9.711664
2023-01-23T07:44:38.409Z,9.711651
2023-01-23T07:45:38.426Z,9.711654
2023-01-23T07:46:39.046Z,9.711679
2023-01-23T07:47:38.383Z,9.711673
2023-01-23T07:48:38.384Z,9.711699
2023-01-23T07:49:38.376Z,9.711735
2023-01-23T07:50:38.374Z,9.711769
2023-01-23T07:51:38.346Z,9.711771
2023-01-23T07:52:38.352Z,9.711655
2023-01-23T07:53:39.332Z,9.711624
2023-01-23T07:54:38.331Z,9.711644
2023-01-23T07:55:38.331Z,9.711682
2023-01-23T07:56:38.359Z,9.711654
2023-01-23T07:57:38.351Z,9.711633
2023-01-23T07:58:40.040Z,9.711636
2023-01-23T07:59:38.426Z,9.711642
2023-01-23T08:00:41.131Z,9.711643
2023-01-23T08:07:46.195Z,9.711604
2023-01-23T08:08:46.202Z,9.711638
2023-01-23T08:09:46.179Z,9.711651
2023-01-23T08:10:46.215Z,9.711647
2023-01-23T08:11:49.081Z,9.711654
2023-01-23T08:12:46.149Z,9.711604
2023-01-23T08:13:46.143Z,9.711697
2023-01-23T08:14:46.233Z,9.711723
2023-01-23T08:15:46.122Z,9.711653
2023-01-23T08:16:46.132Z,9.711699
2023-01-23T08:17:46.149Z,9.711756
2023-01-23T08:18:46.101Z,9.711738
2023-01-23T08:19:46.095Z,9.711677
2023-01-23T08:20:47.090Z,9.711664
2023-01-23T08:21:48.003Z,9.711655
2023-01-23T08:22:46.072Z,9.711702
2023-01-23T08:23:46.124Z,9.711658
2023-01-23T08:46:54.067Z,9.711556
2023-01-23T08:47:54.068Z,9.712063
2023-01-23T08:48:55.809Z,9.711732
2023-01-23T08:49:55.780Z,9.711637
2023-01-23T08:50:54.058Z,9.711615
2023-01-23T08:51:54.022Z,9.711620
2023-01-23T08:52:54.008Z,9.711637
2023-01-23T08:53:54.004Z,9.711655
2023-01-23T08:54:54.006Z,9.711628
2023-01-23T08:55:53.987Z,9.711659
2023-01-23T08:56:54.018Z,9.711663
2023-01-23T08:57:53.978Z,9.711675
2023-01-23T08:58:53.978Z,9.711746
2023-01-23T08:59:54.845Z,9.711716
2023-01-23T09:00:53.994Z,9.711714
2023-01-23T09:01:54.111Z,9.711712
2023-01-23T09:02:53.931Z,9.711707
2023-01-23T09:03:53.921Z,9.711695
2023-01-23T09:04:54.374Z,9.711729
2023-01-23T09:05:53.931Z,9.711717
2023-01-23T09:06:53.894Z,9.711694
2023-01-23T09:07:55.855Z,9.711701
2023-01-23T09:08:53.879Z,9.711677
2023-01-23T09:09:54.823Z,9.711699
2023-01-23T09:10:53.890Z,9.711688
2023-01-23T09:11:56.936Z,9.711735
2023-01-23T09:12:53.863Z,9.711718
2023-01-23T09:13:54.264Z,9.711789
2023-01-23T09:14:54.885Z,9.711800
2023-01-23T09:15:53.828Z,9.711700
2023-01-23T09:16:53.923Z,9.711654
2023-01-23T09:17:53.929Z,9.711638
2023-01-23T09:18:53.825Z,9.711657
2023-01-23T09:19:53.794Z,9.711726
2023-01-23T09:20:53.785Z,9.711664
2023-01-23T09:21:53.790Z,9.711693
2023-01-23T09:22:53.785Z,9.711697
2023-01-23T09:23:53.756Z,9.711609
2023-01-23T09:24:53.748Z,9.711682
2023-01-23T09:25:53.760Z,9.711757
2023-01-23T09:26:53.763Z,9.711670
2023-01-23T09:27:53.768Z,9.711709
2023-01-23T21:29:16.277Z,9.712281
2023-01-23T21:30:16.272Z,9.712242
2023-01-23T21:31:16.383Z,9.711710
2023-01-23T21:32:16.254Z,9.711918
2023-01-23T21:33:17.134Z,9.711922
2023-01-23T21:34:16.245Z,9.712070
2023-01-23T21:35:16.247Z,9.712001
2023-01-23T21:36:16.227Z,9.712000
2023-01-23T21:37:16.207Z,9.711984
2023-01-23T21:38:16.641Z,9.712004
2023-01-23T21:39:16.207Z,9.711810
2023-01-23T21:40:16.648Z,9.711652
2023-01-23T21:41:16.282Z,9.711716
2023-01-23T21:42:16.165Z,9.711644
2023-01-23T21:43:16.173Z,9.711809
2023-01-23T21:44:16.154Z,9.711876
2023-01-23T21:45:16.160Z,9.711837
2023-01-23T21:46:16.163Z,9.711633
2023-01-23T21:47:16.135Z,9.711643
2023-01-23T21:48:16.128Z,9.711591
2023-01-23T21:49:16.121Z,9.711584
2023-01-23T21:50:16.117Z,9.711567
2023-01-23T21:51:16.112Z,9.711628
2023-01-23T21:52:16.089Z,9.711580
2023-01-23T21:53:16.113Z,9.711635
2023-01-23T21:54:16.085Z,9.711603
2023-01-23T21:55:16.080Z,9.711620
2023-01-23T21:56:16.068Z,9.711590
2023-01-23T21:57:16.177Z,9.711528
2023-01-23T21:58:16.051Z,9.711488
2023-01-23T21:59:16.032Z,9.711564
2023-01-23T22:00:16.027Z,9.711619
2023-01-23T22:01:16.092Z,9.711543
2023-01-23T22:02:16.147Z,9.711485
2023-01-23T22:03:16.006Z,9.711539
2023-01-23T22:04:16.004Z,9.711622
2023-01-23T22:05:15.996Z,9.711645
2023-01-23T22:06:15.981Z,9.711637
2023-01-23T22:07:15.991Z,9.711675
2023-01-23T22:08:15.965Z,9.711657
2023-01-23T22:09:15.972Z,9.711633
2023-01-23T22:10:15.956Z,9.711719
2023-01-23T22:11:15.957Z,9.711655
2023-01-23T22:12:15.942Z,9.711671
2023-01-23T22:13:16.037Z,9.711679
2023-01-23T22:14:15.926Z,9.711617
2023-01-23T22:15:15.957Z,9.711637
2023-01-23T22:16:15.974Z,9.711659
2023-01-23T22:17:15.893Z,9.711724
2023-01-23T22:18:15.900Z,9.711635
2023-01-23T22:19:15.887Z,9.711694
2023-01-23T22:20:15.893Z,9.711668
2023-01-23T22:21:15.865Z,9.711677
2023-01-23T22:22:15.857Z,9.711676
2023-01-23T22:23:15.855Z,9.711638
2023-01-23T22:24:15.954Z,9.711718
2023-01-23T22:25:16.646Z,9.711866
2023-01-23T22:26:15.831Z,9.711584
2023-01-23T22:27:15.817Z,9.711568
2023-01-23T22:28:15.805Z,9.711781
2023-01-23T22:29:15.905Z,9.711690
2023-01-23T22:30:15.805Z,9.711761
2023-01-23T22:31:15.902Z,9.711718
2023-01-23T22:32:15.933Z,9.711788
2023-01-23T22:33:15.802Z,9.711730
2023-01-23T22:34:15.775Z,9.711823
2023-01-23T22:35:15.756Z,9.711843
2023-01-23T22:36:16.234Z,9.711821
2023-01-23T22:37:20.430Z,9.711820
2023-01-23T22:38:15.970Z,9.711766
2023-01-23T22:39:17.622Z,9.711726
2023-01-23T22:40:15.724Z,9.711544
2023-01-23T22:41:15.719Z,9.711700
2023-01-23T22:42:15.701Z,9.711721
2023-01-23T22:43:15.704Z,9.711730
2023-01-23T22:44:15.679Z,9.711823
2023-01-23T22:45:15.773Z,9.711865
2023-01-23T22:46:15.661Z,9.711963
2023-01-23T22:47:15.696Z,9.712085
2023-01-23T22:48:15.652Z,9.712195
2023-01-23T22:49:15.652Z,9.711897
2023-01-23T22:50:17.011Z,9.711905
2023-01-23T22:51:16.661Z,9.711935
2023-01-23T22:52:15.615Z,9.712078
2023-01-23T22:53:15.623Z,9.712084
2023-01-23T22:54:15.610Z,9.711935
2023-01-23T22:55:15.593Z,9.711967
2023-01-23T22:56:15.590Z,9.711858
2023-01-23T22:57:15.595Z,9.711807
2023-01-23T22:58:15.565Z,9.711970
2023-01-23T22:59:16.166Z,9.711889
2023-01-23T23:00:15.571Z,9.711787
2023-01-23T23:01:15.716Z,9.711843
2023-01-23T23:02:15.545Z,9.711851
2023-01-23T23:03:15.581Z,9.711828
2023-01-23T23:04:15.573Z,9.711800
2023-01-23T23:05:15.519Z,9.711729
2023-01-23T23:06:15.515Z,9.711783
2023-01-23T23:07:15.513Z,9.711882
2023-01-23T23:08:15.522Z,9.712017
